createdAt,value
2023-01-17T00:01:30.717Z,13.38
2023-01-17T00:04:16.008Z,13.45
2023-01-17T00:07:01.547Z,13.47
2023-01-17T00:09:46.863Z,13.26
2023-01-17T00:12:14.169Z,13.30
2023-01-17T00:14:40.991Z,13.38
2023-01-17T00:17:07.827Z,13.27
2023-01-17T00:19:53.087Z,13.50
2023-01-17T00:22:41.096Z,13.34
2023-01-17T00:25:33.121Z,13.40
2023-01-17T00:27:59.953Z,13.51
2023-01-17T00:30:26.750Z,13.18
2023-01-17T00:32:53.517Z,13.49
2023-01-17T00:35:20.660Z,13.57
2023-01-17T00:37:50.151Z,13.57
2023-01-17T00:40:16.926Z,13.56
2023-01-17T00:42:43.630Z,13.36
2023-01-17T00:45:28.952Z,13.50
2023-01-17T00:48:14.204Z,13.62
2023-01-17T00:50:59.605Z,13.50
2023-01-17T00:53:44.800Z,13.53
2023-01-17T00:56:30.350Z,13.45
2023-01-17T00:59:15.664Z,13.25
2023-01-17T01:02:01.027Z,13.51
2023-01-17T01:04:46.393Z,13.43
2023-01-17T01:07:31.886Z,13.60
2023-01-17T01:10:17.162Z,13.48
2023-01-17T01:13:02.614Z,13.61
2023-01-17T01:15:47.776Z,13.44
2023-01-17T01:18:33.115Z,13.40
2023-01-17T01:21:22.115Z,13.22
2023-01-17T01:24:07.548Z,13.44
2023-01-17T01:26:52.640Z,13.55
2023-01-17T01:29:37.860Z,13.38
2023-01-17T01:32:23.073Z,13.51
2023-01-17T01:34:49.996Z,13.60
2023-01-17T01:37:16.819Z,13.49
2023-01-17T01:39:43.666Z,13.57
2023-01-17T01:42:16.775Z,13.58
2023-01-17T01:44:51.445Z,13.62
2023-01-17T01:47:39.220Z,13.65
2023-01-17T01:50:07.877Z,13.65
2023-01-17T01:52:35.252Z,13.50
2023-01-17T01:55:08.084Z,13.50
2023-01-17T01:57:38.204Z,13.64
2023-01-17T02:00:08.614Z,13.19
2023-01-17T02:02:35.350Z,13.19
2023-01-17T02:05:04.615Z,13.41
2023-01-17T02:07:33.813Z,13.49
2023-01-17T02:10:00.599Z,13.36
2023-01-17T02:12:27.565Z,13.29
2023-01-17T02:14:54.431Z,13.19
2023-01-17T02:17:42.441Z,13.18
2023-01-17T02:20:44.729Z,13.15
2023-01-17T02:23:35.299Z,13.14
2023-01-17T02:26:39.824Z,13.10
2023-01-17T02:29:25.282Z,13.06
2023-01-17T02:32:13.124Z,13.04
2023-01-17T02:35:25.162Z,13.03
2023-01-17T02:38:14.725Z,12.93
2023-01-17T02:40:57.032Z,12.79
2023-01-17T02:43:24.135Z,12.95
2023-01-17T02:45:51.083Z,12.78
2023-01-17T02:48:19.717Z,12.81
2023-01-17T02:50:49.533Z,12.92
2023-01-17T02:53:31.474Z,12.92
2023-01-17T02:56:08.436Z,12.85
2023-01-17T02:58:43.969Z,12.78
2023-01-17T03:01:54.371Z,12.85
2023-01-17T03:04:34.498Z,12.79
2023-01-17T03:07:03.367Z,12.78
2023-01-17T03:09:30.544Z,12.68
2023-01-17T03:11:58.265Z,12.78
2023-01-17T03:14:25.215Z,12.77
2023-01-17T03:16:52.059Z,12.67
2023-01-17T03:19:19.187Z,12.74
2023-01-17T03:21:46.057Z,12.51
2023-01-17T03:24:12.793Z,12.76
2023-01-17T03:26:39.622Z,12.73
2023-01-17T03:29:06.471Z,12.61
2023-01-17T03:31:33.213Z,12.74
2023-01-17T03:33:59.945Z,12.70
2023-01-17T03:36:26.890Z,12.62
2023-01-17T03:38:53.757Z,12.69
2023-01-17T03:41:20.491Z,12.74
2023-01-17T03:43:47.458Z,12.51
2023-01-17T03:46:25.044Z,12.59
2023-01-17T03:48:52.124Z,12.64
2023-01-17T03:51:19.029Z,12.56
2023-01-17T03:53:48.662Z,12.68
2023-01-17T03:56:15.556Z,12.46
2023-01-17T03:58:42.429Z,12.70
2023-01-17T04:01:09.281Z,12.53
2023-01-17T04:03:36.194Z,12.70
2023-01-17T04:06:02.971Z,12.59
2023-01-17T04:08:30.655Z,12.61
2023-01-17T04:10:57.584Z,12.45
2023-01-17T04:13:24.349Z,12.76
2023-01-17T04:15:51.566Z,12.61
2023-01-17T04:18:18.911Z,12.72
2023-01-17T04:20:45.768Z,12.54
2023-01-17T04:23:12.557Z,12.42
2023-01-17T04:25:39.473Z,12.50
2023-01-17T04:28:06.228Z,12.47
2023-01-17T04:30:33.154Z,12.22
2023-01-17T04:33:00.145Z,12.54
2023-01-17T04:35:27.028Z,12.32
2023-01-17T04:37:53.815Z,11.87
2023-01-17T04:40:20.944Z,12.37
2023-01-17T04:42:48.201Z,12.14
2023-01-17T04:45:15.293Z,12.36
2023-01-17T04:47:42.096Z,12.37
2023-01-17T04:50:09.765Z,12.35
2023-01-17T04:52:36.483Z,12.47
2023-01-17T04:55:03.439Z,12.35
2023-01-17T04:57:30.184Z,12.37
2023-01-17T04:59:57.016Z,12.40
2023-01-17T05:02:24.014Z,12.24
2023-01-17T05:04:50.840Z,12.35
2023-01-17T05:07:17.570Z,12.27
2023-01-17T05:09:44.570Z,12.44
2023-01-17T05:12:11.331Z,12.33
2023-01-17T05:14:38.243Z,12.28
2023-01-17T05:17:05.167Z,12.47
2023-01-17T05:19:32.034Z,12.31
2023-01-17T05:22:04.348Z,12.32
2023-01-17T05:24:31.787Z,12.35
2023-01-17T05:27:03.301Z,12.33
2023-01-17T05:29:30.735Z,12.09
2023-01-17T05:31:57.886Z,12.23
2023-01-17T05:34:24.801Z,12.18
2023-01-17T05:36:51.669Z,12.15
2023-01-17T05:39:18.650Z,11.94
2023-01-17T05:41:46.036Z,11.95
2023-01-17T05:44:13.276Z,11.67
2023-01-17T05:46:40.273Z,11.77
2023-01-17T05:49:07.189Z,11.60
2023-01-17T05:51:37.846Z,11.48
2023-01-17T05:54:05.334Z,11.61
2023-01-17T05:56:32.279Z,11.62
2023-01-17T05:58:59.049Z,11.55
2023-01-17T06:01:26.101Z,11.66
2023-01-17T06:03:52.922Z,11.54
2023-01-17T06:06:19.727Z,11.59
2023-01-17T06:08:46.687Z,11.59
2023-01-17T06:11:13.818Z,11.56
2023-01-17T06:13:40.546Z,11.52
2023-01-17T06:16:07.854Z,11.48
2023-01-17T06:18:35.057Z,11.26
2023-01-17T06:21:02.174Z,11.48
2023-01-17T06:23:29.144Z,11.46
2023-01-17T06:25:56.206Z,11.48
2023-01-17T06:28:23.298Z,11.49
2023-01-17T06:30:50.344Z,11.46
2023-01-17T06:33:17.263Z,11.65
2023-01-17T06:35:48.506Z,11.54
2023-01-17T06:38:15.482Z,11.54
2023-01-17T06:40:42.311Z,11.78
2023-01-17T06:43:09.080Z,11.74
2023-01-17T06:45:35.995Z,11.89
2023-01-17T06:48:04.212Z,11.76
2023-01-17T06:50:31.541Z,11.90
2023-01-17T06:53:00.043Z,11.73
2023-01-17T06:55:30.570Z,11.70
2023-01-17T06:57:57.946Z,11.79
2023-01-17T07:00:25.033Z,11.82
2023-01-17T07:02:52.116Z,11.67
2023-01-17T07:05:19.337Z,11.75
2023-01-17T07:07:46.653Z,11.72
2023-01-17T07:10:13.966Z,11.41
2023-01-17T07:12:40.960Z,11.35
2023-01-17T07:15:08.433Z,11.51
2023-01-17T07:17:35.369Z,10.98
2023-01-17T07:20:02.626Z,11.53
2023-01-17T07:22:29.445Z,11.60
2023-01-17T07:24:58.818Z,11.41
2023-01-17T07:27:27.929Z,11.65
2023-01-17T07:29:54.670Z,11.64
2023-01-17T07:32:21.535Z,11.05
2023-01-17T07:34:49.118Z,11.61
2023-01-17T07:37:15.898Z,11.55
2023-01-17T07:39:42.737Z,11.66
2023-01-17T07:42:09.712Z,11.40
2023-01-17T07:44:36.534Z,11.31
2023-01-17T07:47:04.468Z,11.39
2023-01-17T07:49:31.403Z,11.29
2023-01-17T07:51:58.135Z,11.18
2023-01-17T07:54:24.913Z,11.32
2023-01-17T07:56:51.833Z,11.20
2023-01-17T07:59:18.720Z,11.31
2023-01-17T08:01:45.776Z,11.08
2023-01-17T08:04:13.332Z,11.12
2023-01-17T08:06:40.646Z,11.15
2023-01-17T08:09:07.430Z,11.02
2023-01-17T08:11:34.419Z,11.28
2023-01-17T08:14:01.219Z,11.05
2023-01-17T08:16:29.982Z,11.27
2023-01-17T08:18:57.055Z,11.02
2023-01-17T08:21:24.074Z,11.15
2023-01-17T08:23:51.610Z,11.41
2023-01-17T08:26:22.552Z,11.56
2023-01-17T08:29:00.575Z,11.39
2023-01-17T08:31:31.537Z,11.40
2023-01-17T08:33:58.452Z,11.07
2023-01-17T08:36:29.060Z,11.27
2023-01-17T08:38:55.973Z,11.24
2023-01-17T08:41:23.362Z,11.03
2023-01-17T08:43:50.777Z,11.14
2023-01-17T08:46:18.002Z,10.97
2023-01-17T08:48:44.972Z,10.96
2023-01-17T08:51:11.904Z,10.90
2023-01-17T08:53:38.878Z,11.06
2023-01-17T08:56:06.555Z,11.12
2023-01-17T08:58:34.183Z,11.18
2023-01-17T09:01:05.412Z,11.18
2023-01-17T09:03:32.624Z,11.24
2023-01-17T09:06:13.191Z,11.42
2023-01-17T09:08:40.268Z,11.40
2023-01-17T09:11:11.689Z,11.43
2023-01-17T09:13:38.674Z,10.96
2023-01-17T09:16:05.764Z,11.05
2023-01-17T09:18:33.075Z,10.87
2023-01-17T09:21:00.149Z,11.06
2023-01-17T09:23:27.669Z,10.73
2023-01-17T09:25:58.786Z,10.80
2023-01-17T09:28:26.346Z,10.75
2023-01-17T09:30:53.602Z,10.86
2023-01-17T09:33:20.858Z,10.74
2023-01-17T09:35:47.591Z,10.78
2023-01-17T09:38:14.500Z,10.98
2023-01-17T09:40:46.527Z,10.87
2023-01-17T09:43:27.013Z,11.26
2023-01-17T09:45:53.814Z,11.88
2023-01-17T09:48:31.393Z,12.28
2023-01-17T09:51:03.635Z,12.40
2023-01-17T09:53:31.857Z,12.19
2023-01-17T09:56:01.383Z,12.03
2023-01-17T09:58:47.813Z,12.11
2023-01-17T10:01:52.356Z,12.03
2023-01-17T10:04:30.340Z,11.94
2023-01-17T10:07:00.100Z,11.89
2023-01-17T10:09:29.820Z,11.93
2023-01-17T10:12:21.743Z,11.89
2023-01-17T10:15:12.806Z,11.91
2023-01-17T10:18:29.191Z,11.64
2023-01-17T10:21:05.146Z,11.67
2023-01-17T10:23:39.945Z,11.56
2023-01-17T10:26:16.219Z,11.67
2023-01-17T10:28:51.342Z,11.59
2023-01-17T10:31:25.888Z,11.07
2023-01-17T10:33:58.789Z,11.54
2023-01-17T10:36:27.499Z,11.29
2023-01-17T10:38:56.279Z,11.49
2023-01-17T10:41:32.049Z,11.45
2023-01-17T10:44:07.551Z,11.34
2023-01-17T10:46:47.642Z,11.21
2023-01-17T10:49:20.450Z,10.85
2023-01-17T10:52:05.984Z,11.35
2023-01-17T10:55:04.071Z,11.40
2023-01-17T10:57:39.144Z,11.43
2023-01-17T11:00:18.257Z,11.52
2023-01-17T11:02:47.925Z,11.68
2023-01-17T11:05:20.890Z,12.47
2023-01-17T11:08:17.936Z,12.73
2023-01-17T11:10:54.107Z,12.55
2023-01-17T11:13:32.591Z,12.20
2023-01-17T11:16:04.936Z,12.18
2023-01-17T11:18:33.645Z,12.19
2023-01-17T11:21:21.675Z,12.09
2023-01-17T11:23:50.295Z,11.81
2023-01-17T11:26:30.919Z,11.71
2023-01-17T11:29:23.967Z,11.73
2023-01-17T11:31:50.717Z,11.54
2023-01-17T11:34:18.964Z,11.48
2023-01-17T11:36:45.889Z,11.39
2023-01-17T11:39:18.609Z,11.53
2023-01-17T11:41:49.506Z,11.47
2023-01-17T11:44:33.275Z,11.08
2023-01-17T11:47:12.492Z,11.29
2023-01-17T11:49:43.976Z,11.27
2023-01-17T11:52:23.876Z,11.29
2023-01-17T11:54:50.882Z,11.22
2023-01-17T11:57:33.387Z,10.94
2023-01-17T12:00:03.707Z,11.19
2023-01-17T12:02:43.029Z,11.25
2023-01-17T12:05:41.091Z,11.30
2023-01-17T12:08:17.001Z,11.31
2023-01-17T12:10:52.833Z,11.42
2023-01-17T12:13:42.606Z,11.67
2023-01-17T12:16:33.483Z,12.30
2023-01-17T12:19:06.308Z,12.46
2023-01-17T12:21:51.575Z,11.87
2023-01-17T12:24:46.480Z,12.15
2023-01-17T12:27:13.197Z,12.09
2023-01-17T12:29:47.025Z,11.76
2023-01-17T12:32:53.149Z,12.08
2023-01-17T12:35:30.845Z,11.84
2023-01-17T12:38:05.197Z,12.07
2023-01-17T12:40:49.644Z,12.29
2023-01-17T12:43:24.100Z,12.25
2023-01-17T12:45:51.087Z,12.02
2023-01-17T12:48:19.224Z,11.85
2023-01-17T12:50:58.030Z,12.20
2023-01-17T12:53:30.833Z,12.39
2023-01-17T12:55:57.493Z,12.49
2023-01-17T12:58:26.654Z,12.27
2023-01-17T13:01:19.894Z,12.27
2023-01-17T13:04:07.417Z,12.33
2023-01-17T13:06:46.809Z,12.27
2023-01-17T13:09:15.424Z,11.48
2023-01-17T13:11:46.706Z,11.91
2023-01-17T13:14:13.539Z,12.12
2023-01-17T13:16:43.813Z,11.91
2023-01-17T13:19:37.072Z,12.42
2023-01-17T13:22:06.246Z,13.26
2023-01-17T13:24:45.380Z,13.39
2023-01-17T13:27:34.153Z,13.35
2023-01-17T13:30:43.475Z,13.27
2023-01-17T13:33:22.062Z,13.05
2023-01-17T13:35:58.236Z,12.92
2023-01-17T13:38:55.442Z,12.41
2023-01-17T13:41:52.996Z,12.83
2023-01-17T13:44:27.979Z,12.32
2023-01-17T13:47:27.832Z,12.38
2023-01-17T13:49:56.860Z,12.05
2023-01-17T13:52:26.593Z,11.84
2023-01-17T13:54:54.923Z,11.56
2023-01-17T13:57:29.790Z,11.47
2023-01-17T13:59:57.665Z,11.13
2023-01-17T14:02:33.660Z,11.19
2023-01-17T14:05:20.726Z,11.19
2023-01-17T14:07:49.860Z,11.01
2023-01-17T14:10:57.090Z,11.19
2023-01-17T14:13:36.595Z,11.20
2023-01-17T14:16:24.489Z,11.22
2023-01-17T14:18:51.356Z,11.10
2023-01-17T14:21:24.727Z,11.29
2023-01-17T14:24:11.960Z,11.22
2023-01-17T14:26:41.841Z,11.45
2023-01-17T14:29:44.166Z,11.49
2023-01-17T14:32:12.723Z,11.39
2023-01-17T14:34:39.657Z,11.59
2023-01-17T14:37:33.840Z,11.57
2023-01-17T14:40:00.766Z,11.27
2023-01-17T14:42:29.541Z,11.29
2023-01-17T14:45:18.743Z,11.13
2023-01-17T14:47:46.161Z,10.67
2023-01-17T14:50:23.803Z,10.79
2023-01-17T14:53:18.574Z,11.07
2023-01-17T14:55:48.453Z,11.17
2023-01-17T14:58:18.714Z,11.24
2023-01-17T15:00:50.359Z,11.21
2023-01-17T15:03:17.327Z,11.51
2023-01-17T15:05:47.199Z,11.56
2023-01-17T15:08:14.582Z,11.89
2023-01-17T15:11:00.551Z,11.96
2023-01-17T15:13:43.833Z,11.78
2023-01-17T15:16:26.011Z,11.71
2023-01-17T15:18:53.668Z,11.99
2023-01-17T15:21:22.569Z,11.62
2023-01-17T15:23:52.161Z,12.07
2023-01-17T15:26:21.559Z,12.02
2023-01-17T15:28:48.443Z,11.82
2023-01-17T15:31:25.970Z,11.98
2023-01-17T15:33:55.624Z,12.20
2023-01-17T15:36:33.318Z,12.20
2023-01-17T15:39:39.499Z,12.22
2023-01-17T15:42:08.565Z,12.11
2023-01-17T15:44:52.766Z,12.05
2023-01-17T15:47:31.832Z,12.25
2023-01-17T15:49:59.990Z,12.30
2023-01-17T15:52:26.938Z,12.34
2023-01-17T15:55:11.582Z,12.37
2023-01-17T15:57:39.225Z,12.19
2023-01-17T16:00:21.162Z,12.34
2023-01-17T16:02:59.266Z,11.94
2023-01-17T16:05:27.835Z,12.42
2023-01-17T16:08:04.568Z,12.45
2023-01-17T16:10:36.471Z,12.26
2023-01-17T16:13:04.755Z,12.48
2023-01-17T16:15:31.708Z,12.19
2023-01-17T16:18:09.282Z,12.61
2023-01-17T16:20:38.354Z,12.59
2023-01-17T16:23:05.124Z,12.49
2023-01-17T16:25:34.759Z,12.09
2023-01-17T16:28:02.400Z,12.04
2023-01-17T16:30:29.309Z,12.09
2023-01-17T16:32:57.123Z,12.04
2023-01-17T16:35:27.991Z,11.84
2023-01-17T16:37:58.945Z,11.72
2023-01-17T16:40:27.590Z,11.76
2023-01-17T16:42:57.673Z,11.55
2023-01-17T16:45:25.068Z,11.46
2023-01-17T16:47:52.618Z,11.71
2023-01-17T16:50:22.306Z,11.68
2023-01-17T16:52:50.463Z,11.61
2023-01-17T16:55:17.927Z,11.64
2023-01-17T16:57:44.843Z,11.51
2023-01-17T17:00:12.641Z,11.15
2023-01-17T17:02:40.856Z,10.90
2023-01-17T17:05:08.297Z,10.49
2023-01-17T17:07:43.131Z,10.46
2023-01-17T17:10:14.573Z,10.21
2023-01-17T17:12:41.677Z,10.16
2023-01-17T17:15:09.466Z,10.18
2023-01-17T17:17:37.173Z,10.26
2023-01-17T17:20:05.339Z,10.31
2023-01-17T17:22:32.833Z,10.11
2023-01-17T17:24:59.709Z,10.29
2023-01-17T17:27:27.863Z,10.10
2023-01-17T17:29:54.809Z,10.15
2023-01-17T17:32:21.757Z,9.73
2023-01-17T17:34:50.801Z,10.18
2023-01-17T17:37:17.762Z,9.90
2023-01-17T17:39:47.381Z,9.96
2023-01-17T17:42:15.635Z,9.96
2023-01-17T17:44:42.511Z,10.17
2023-01-17T17:47:13.254Z,10.11
2023-01-17T17:49:40.120Z,10.23
2023-01-17T17:52:07.394Z,10.13
2023-01-17T17:54:34.400Z,10.03
2023-01-17T17:57:01.135Z,10.15
2023-01-17T17:59:28.132Z,10.26
2023-01-17T18:01:54.888Z,10.24
2023-01-17T18:04:22.288Z,10.27
2023-01-17T18:06:49.330Z,9.75
2023-01-17T18:09:16.132Z,9.92
2023-01-17T18:11:43.395Z,10.20
2023-01-17T18:14:13.038Z,10.04
2023-01-17T18:16:41.868Z,10.03
2023-01-17T18:19:17.127Z,10.00
2023-01-17T18:21:43.916Z,10.04
2023-01-17T18:24:14.341Z,9.88
2023-01-17T18:26:43.517Z,9.63
2023-01-17T18:29:12.622Z,9.28
2023-01-17T18:31:39.452Z,9.85
2023-01-17T18:34:08.265Z,9.79
2023-01-17T18:36:35.114Z,9.67
2023-01-17T18:39:02.589Z,9.73
2023-01-17T18:41:30.264Z,9.80
2023-01-17T18:43:57.583Z,9.40
2023-01-17T18:46:26.138Z,9.35
2023-01-17T18:48:55.234Z,9.93
2023-01-17T18:51:22.147Z,9.82
2023-01-17T18:53:48.941Z,9.53
2023-01-17T18:56:18.276Z,9.32
2023-01-17T18:58:46.311Z,9.66
2023-01-17T19:01:23.624Z,9.56
2023-01-17T19:06:30.031Z,9.74
2023-01-17T19:08:57.970Z,9.75
2023-01-17T19:11:24.968Z,9.71
2023-01-17T19:13:52.689Z,9.68
2023-01-17T19:16:24.639Z,9.59
2023-01-17T19:18:52.344Z,9.78
2023-01-17T19:21:21.160Z,9.78
2023-01-17T19:23:48.271Z,9.58
2023-01-17T19:26:17.211Z,9.67
2023-01-17T19:28:45.108Z,9.86
2023-01-17T19:31:13.069Z,9.77
2023-01-17T19:33:40.839Z,9.72
2023-01-17T19:36:09.467Z,9.73
2023-01-17T19:38:36.987Z,9.67
2023-01-17T19:41:30.938Z,9.30
2023-01-17T19:44:01.609Z,9.66
2023-01-17T19:46:28.543Z,9.66
2023-01-17T19:48:56.108Z,9.54
2023-01-17T19:51:23.024Z,9.39
2023-01-17T19:53:49.845Z,9.67
2023-01-17T19:56:18.491Z,9.65
2023-01-17T19:58:45.600Z,9.61
2023-01-17T20:01:19.839Z,9.46
2023-01-17T20:03:46.842Z,9.60
2023-01-17T20:06:16.472Z,9.56
2023-01-17T20:08:43.693Z,9.48
2023-01-17T20:11:21.097Z,9.34
2023-01-17T20:13:48.813Z,9.19
2023-01-17T20:16:15.868Z,9.24
2023-01-17T20:18:43.257Z,9.03
2023-01-17T20:21:17.885Z,9.12
2023-01-17T20:23:47.062Z,9.06
2023-01-17T20:26:25.233Z,8.95
2023-01-17T20:28:52.330Z,8.97
2023-01-17T20:31:23.650Z,8.93
2023-01-17T20:33:51.336Z,8.90
2023-01-17T20:36:19.134Z,8.75
2023-01-17T20:38:45.971Z,8.76
2023-01-17T20:41:39.050Z,8.70
2023-01-17T20:44:06.937Z,8.58
2023-01-17T20:46:40.735Z,8.39
2023-01-17T20:49:14.805Z,8.66
2023-01-17T20:51:42.021Z,8.67
2023-01-17T20:54:10.981Z,8.71
2023-01-17T20:56:38.522Z,8.66
2023-01-17T20:59:09.708Z,8.62
2023-01-17T21:01:36.971Z,8.80
2023-01-17T21:04:04.094Z,8.67
2023-01-17T21:06:31.158Z,8.79
2023-01-17T21:08:59.046Z,8.45
2023-01-17T21:11:26.464Z,8.94
2023-01-17T21:13:53.517Z,8.86
2023-01-17T21:16:23.164Z,8.74
2023-01-17T21:18:50.892Z,8.93
2023-01-17T21:21:22.282Z,8.84
2023-01-17T21:23:49.961Z,8.75
2023-01-17T21:26:17.464Z,8.80
2023-01-17T21:28:45.261Z,8.84
2023-01-17T21:31:23.479Z,8.96
2023-01-17T21:33:55.185Z,8.87
2023-01-17T21:36:23.278Z,8.84
2023-01-17T21:38:52.266Z,8.88
2023-01-17T21:41:23.445Z,8.99
2023-01-17T21:43:53.845Z,8.90
2023-01-17T21:46:20.606Z,9.06
2023-01-17T21:48:47.406Z,8.95
2023-01-17T21:51:14.225Z,9.10
2023-01-17T21:53:40.975Z,9.13
2023-01-17T21:56:30.220Z,9.15
2023-01-17T21:58:57.373Z,9.20
2023-01-17T22:01:26.073Z,9.01
2023-01-17T22:03:53.688Z,9.28
2023-01-17T22:06:23.215Z,9.11
2023-01-17T22:08:50.040Z,9.28
2023-01-17T22:11:21.101Z,9.13
2023-01-17T22:13:47.939Z,9.38
2023-01-17T22:16:16.284Z,9.20
2023-01-17T22:18:43.541Z,9.11
2023-01-17T22:21:21.280Z,8.51
2023-01-17T22:23:53.064Z,8.85
2023-01-17T22:26:20.943Z,8.82
2023-01-17T22:28:47.723Z,8.91
2023-01-17T22:31:14.553Z,9.01
2023-01-17T22:33:42.806Z,9.05
2023-01-17T22:36:10.098Z,9.07
2023-01-17T22:38:36.990Z,8.87
2023-01-17T22:41:08.439Z,9.09
2023-01-17T22:43:40.010Z,9.10
2023-01-17T22:46:07.661Z,9.07
2023-01-17T22:48:34.632Z,9.08
2023-01-17T22:51:02.406Z,9.06
2023-01-17T22:53:29.454Z,9.24
2023-01-17T22:56:06.425Z,9.19
2023-01-17T22:58:33.395Z,9.23
2023-01-17T23:01:07.221Z,9.21
2023-01-17T23:03:34.635Z,8.80
2023-01-17T23:06:09.784Z,9.10
2023-01-17T23:08:37.489Z,9.05
2023-01-17T23:11:32.806Z,9.20
2023-01-17T23:13:59.624Z,9.25
2023-01-17T23:16:44.825Z,9.13
2023-01-17T23:19:23.581Z,9.30
2023-01-17T23:22:14.205Z,9.25
2023-01-17T23:24:43.869Z,9.14
2023-01-17T23:27:32.621Z,9.28
2023-01-17T23:29:59.499Z,9.24
2023-01-17T23:32:26.484Z,9.06
2023-01-17T23:34:53.615Z,9.39
2023-01-17T23:37:20.532Z,9.35
2023-01-17T23:39:47.328Z,9.23
2023-01-17T23:42:32.736Z,9.21
2023-01-17T23:44:59.570Z,9.14
2023-01-17T23:47:26.284Z,9.22
2023-01-17T23:49:53.138Z,9.22
2023-01-17T23:52:19.867Z,9.19
2023-01-17T23:54:48.580Z,9.18
2023-01-17T23:57:15.514Z,9.21
2023-01-17T23:59:42.343Z,8.96
